Time;durP1;ratioP1;P1;durP2;ratioP2;P2;SDS_P1;SDS_P2;PMS_P1;PMS_P2;Temp;Humidity;BMP_temperature;BMP_pressure;BME280_temperature;BME280_humidity;BME280_pressure;Samples;Min_cycle;Max_cycle;Signal;HPM_P1;HPM_P2
2020/12/10 00:00:38;;;;;;;8.88;2.03;;;26.00;54.90;;;;;;5132648;27;20030;-54
2020/12/10 00:03:05;;;;;;;6.15;1.73;;;26.00;54.00;;;;;;5132292;27;20031;-58
2020/12/10 00:05:32;;;;;;;6.57;1.73;;;26.00;53.20;;;;;;5132140;27;20431;-61
2020/12/10 00:08:00;;;;;;;5.65;1.65;;;26.00;55.70;;;;;;5132636;27;20031;-59
2020/12/10 00:10:27;;;;;;;3.03;1.88;;;25.90;56.10;;;;;;5132689;27;20038;-61
2020/12/10 00:12:56;;;;;;;5.00;1.85;;;25.90;56.30;;;;;;5132883;27;20031;-57
2020/12/10 00:15:24;;;;;;;6.50;2.25;;;26.00;55.90;;;;;;5133048;27;20023;-57
2020/12/10 00:17:51;;;;;;;5.90;2.78;;;26.10;55.30;;;;;;5131812;27;20470;-56
2020/12/10 00:20:18;;;;;;;5.13;1.70;;;26.30;55.20;;;;;;5132154;27;20456;-59
2020/12/10 00:22:46;;;;;;;4.15;1.60;;;26.20;56.10;;;;;;5131926;27;20034;-55
2020/12/10 00:25:13;;;;;;;8.82;1.70;;;26.20;55.60;;;;;;5132526;27;20019;-51
2020/12/10 00:27:41;;;;;;;6.45;2.13;;;26.20;55.80;;;;;;5132377;27;20119;-52
2020/12/10 00:30:09;;;;;;;13.52;2.25;;;26.30;55.60;;;;;;5132169;27;20030;-57
2020/12/10 00:32:40;;;;;;;5.65;1.85;;;26.40;55.40;;;;;;5132194;27;20119;-56
2020/12/10 00:35:08;;;;;;;4.80;1.63;;;26.40;55.00;;;;;;5132316;27;20025;-56
2020/12/10 00:37:37;;;;;;;6.90;2.05;;;26.50;54.60;;;;;;5132510;27;20099;-57
2020/12/10 00:40:08;;;;;;;8.02;2.50;;;26.50;53.90;;;;;;5132537;27;20470;-57
2020/12/10 00:42:36;;;;;;;5.15;1.67;;;26.40;54.80;;;;;;5132234;27;20380;-59
2020/12/10 00:45:04;;;;;;;11.35;1.75;;;26.50;55.50;;;;;;5132049;27;20031;-52
2020/12/10 00:47:32;;;;;;;6.50;1.80;;;26.50;56.10;;;;;;5131452;27;20111;-52
2020/12/10 00:49:59;;;;;;;7.60;2.17;;;26.40;55.80;;;;;;5132712;27;20019;-54
2020/12/10 00:52:27;;;;;;;3.55;1.48;;;26.30;56.30;;;;;;5132303;27;20417;-55
2020/12/10 00:54:54;;;;;;;7.57;1.80;;;26.30;56.30;;;;;;5132416;28;20074;-58
2020/12/10 00:57:21;;;;;;;8.63;1.70;;;26.30;56.20;;;;;;5132979;28;20380;-57
2020/12/10 00:59:49;;;;;;;6.45;1.52;;;26.20;56.30;;;;;;5132626;28;20035;-59
2020/12/10 01:02:16;;;;;;;8.73;2.28;;;26.20;56.60;;;;;;5132701;28;20030;-57
2020/12/10 01:04:44;;;;;;;5.72;2.13;;;26.20;56.80;;;;;;5132514;28;20023;-57
2020/12/10 01:07:11;;;;;;;5.82;2.03;;;26.10;57.50;;;;;;5132430;28;20038;-56
2020/12/10 01:09:38;;;;;;;7.55;2.08;;;26.10;57.30;;;;;;5132562;28;20019;-61
2020/12/10 01:12:06;;;;;;;6.28;1.90;;;26.10;57.50;;;;;;5132213;28;20027;-58
2020/12/10 01:14:34;;;;;;;5.03;1.75;;;26.00;58.00;;;;;;5113668;28;20099;-58
2020/12/10 01:17:02;;;;;;;4.70;1.55;;;26.00;57.80;;;;;;5131542;28;20043;-60
2020/12/10 01:19:30;;;;;;;5.75;2.03;;;26.00;58.00;;;;;;5112717;28;20517;-57
2020/12/10 01:21:57;;;;;;;10.55;2.55;;;26.00;58.80;;;;;;5131613;28;20051;-58
2020/12/10 01:24:25;;;;;;;8.13;2.67;;;26.00;58.50;;;;;;5113926;28;20023;-60
2020/12/10 01:26:52;;;;;;;11.05;2.38;;;26.00;58.50;;;;;;5131847;28;20039;-56
2020/12/10 01:29:21;;;;;;;12.73;2.33;;;26.00;58.80;;;;;;5132151;28;20030;-56
2020/12/10 01:31:49;;;;;;;13.77;2.88;;;26.00;58.90;;;;;;5132152;28;20019;-61
2020/12/10 01:34:18;;;;;;;10.95;2.38;;;26.00;59.20;;;;;;5132446;28;20422;-55
2020/12/10 01:36:45;;;;;;;11.07;2.25;;;26.00;59.00;;;;;;5132051;28;20419;-55
2020/12/10 01:39:13;;;;;;;5.93;2.08;;;26.00;59.10;;;;;;5131986;28;20171;-57
2020/12/10 01:41:40;;;;;;;5.22;2.30;;;25.90;59.40;;;;;;5131716;28;20024;-56
2020/12/10 01:44:10;;;;;;;6.75;2.33;;;26.00;59.30;;;;;;5131990;28;20024;-56
2020/12/10 01:46:38;;;;;;;13.25;3.20;;;25.90;59.30;;;;;;5112816;28;20426;-56
2020/12/10 01:49:08;;;;;;;9.88;2.90;;;25.90;60.00;;;;;;5131809;28;20030;-62
2020/12/10 01:51:36;;;;;;;8.52;2.25;;;25.90;59.80;;;;;;5131851;28;20023;-54
2020/12/10 01:54:06;;;;;;;9.60;2.65;;;25.90;60.20;;;;;;5131737;28;20035;-56
2020/12/10 01:56:34;;;;;;;11.75;2.88;;;25.90;59.80;;;;;;5131872;28;20346;-59
2020/12/10 01:59:03;;;;;;;13.15;3.50;;;25.90;60.00;;;;;;5134573;27;20106;-56
2020/12/10 02:01:32;;;;;;;8.38;2.75;;;25.90;60.40;;;;;;5116962;27;20023;-57
2020/12/10 02:03:59;;;;;;;12.23;2.67;;;26.00;60.50;;;;;;5135244;27;20118;-58
2020/12/10 02:06:27;;;;;;;12.05;3.17;;;26.00;60.40;;;;;;5134641;27;20047;-59
2020/12/10 02:08:55;;;;;;;10.25;2.90;;;25.90;60.20;;;;;;5116901;27;20034;-55
2020/12/10 02:11:24;;;;;;;9.93;2.95;;;26.00;60.70;;;;;;5135686;27;20027;-58
2020/12/10 02:13:51;;;;;;;16.77;3.65;;;25.90;61.10;;;;;;5134730;27;20056;-53
2020/12/10 02:16:19;;;;;;;11.98;3.10;;;25.90;60.70;;;;;;5135181;27;20066;-57
2020/12/10 02:18:46;;;;;;;11.73;3.15;;;25.90;60.80;;;;;;5134428;27;20051;-56
2020/12/10 02:21:14;;;;;;;11.35;3.15;;;25.90;60.90;;;;;;5135162;27;20053;-57
2020/12/10 02:23:41;;;;;;;12.23;3.35;;;25.90;60.90;;;;;;5134964;27;20062;-59
2020/12/10 02:26:08;;;;;;;14.30;3.97;;;25.90;60.90;;;;;;5115442;27;20058;-59
2020/12/10 02:28:36;;;;;;;11.68;3.22;;;25.90;61.10;;;;;;5095056;28;20028;-57
2020/12/10 02:31:04;;;;;;;10.77;3.22;;;26.00;61.00;;;;;;5112832;28;20199;-60
2020/12/10 02:33:31;;;;;;;9.75;3.63;;;25.90;61.00;;;;;;5112975;28;20028;-56
2020/12/10 02:36:03;;;;;;;10.75;3.53;;;26.00;61.20;;;;;;5111437;28;20034;-60
2020/12/10 02:38:30;;;;;;;10.65;3.38;;;26.00;61.10;;;;;;5111040;28;20040;-57
2020/12/10 02:40:57;;;;;;;11.68;3.00;;;26.00;61.20;;;;;;5110916;28;20491;-54
2020/12/10 02:43:25;;;;;;;12.68;2.83;;;26.00;61.00;;;;;;5110678;28;20043;-58
2020/12/10 02:45:52;;;;;;;13.75;3.95;;;26.00;61.00;;;;;;5109495;28;20023;-58
2020/12/10 02:48:19;;;;;;;15.35;4.75;;;26.10;61.20;;;;;;5110432;28;20032;-52
2020/12/10 02:50:47;;;;;;;10.55;4.32;;;26.00;61.20;;;;;;5111886;28;20019;-58
2020/12/10 02:53:14;;;;;;;12.02;3.25;;;26.10;61.20;;;;;;5113055;28;20540;-61
2020/12/10 02:55:41;;;;;;;12.30;3.72;;;26.10;61.30;;;;;;5102210;27;20560;-54
2020/12/10 02:58:09;;;;;;;12.15;3.90;;;26.10;61.10;;;;;;5110832;27;20039;-51
2020/12/10 03:00:36;;;;;;;16.35;3.58;;;26.10;61.50;;;;;;5109688;28;20125;-58
2020/12/10 03:03:03;;;;;;;17.85;3.53;;;26.10;61.10;;;;;;5109990;27;20020;-63
2020/12/10 03:05:31;;;;;;;14.48;3.70;;;26.10;61.40;;;;;;5110046;28;20024;-56
2020/12/10 03:07:58;;;;;;;8.82;2.88;;;26.10;61.30;;;;;;5088221;28;20028;-50
2020/12/10 03:10:25;;;;;;;10.93;3.50;;;26.10;61.50;;;;;;5108603;28;20024;-53
2020/12/10 03:12:53;;;;;;;10.75;3.70;;;26.10;61.40;;;;;;5109375;28;20119;-47
2020/12/10 03:15:20;;;;;;;10.82;3.50;;;26.10;61.70;;;;;;5091481;28;20032;-54
2020/12/10 03:17:49;;;;;;;13.48;3.90;;;26.10;61.60;;;;;;5105981;28;20051;-53
2020/12/10 03:20:18;;;;;;;10.70;3.50;;;26.10;61.60;;;;;;5109389;28;20027;-55
2020/12/10 03:22:45;;;;;;;12.57;3.65;;;26.10;61.80;;;;;;5109764;28;20103;-57
2020/12/10 03:25:13;;;;;;;15.30;3.83;;;26.10;61.90;;;;;;5107425;28;20027;-55
2020/12/10 03:27:42;;;;;;;15.50;4.65;;;26.10;61.90;;;;;;5104967;28;20412;-61
2020/12/10 03:30:10;;;;;;;14.50;4.10;;;26.10;61.90;;;;;;5093886;28;20528;-58
2020/12/10 03:32:38;;;;;;;13.70;4.63;;;26.10;62.00;;;;;;5111910;28;20107;-58
2020/12/10 03:35:06;;;;;;;11.02;3.40;;;26.10;62.00;;;;;;5112143;28;20111;-61
2020/12/10 03:37:33;;;;;;;9.82;3.70;;;26.10;61.90;;;;;;5112639;28;20084;-58
2020/12/10 03:40:02;;;;;;;12.00;4.53;;;26.10;61.90;;;;;;5112584;28;20104;-58
2020/12/10 03:42:29;;;;;;;15.23;3.97;;;26.10;61.90;;;;;;5112727;28;20539;-57
2020/12/10 03:44:56;;;;;;;16.73;4.47;;;26.10;61.80;;;;;;5094318;28;20027;-57
2020/12/10 03:47:24;;;;;;;11.55;3.60;;;26.10;61.90;;;;;;5112169;28;20339;-56
2020/12/10 03:49:51;;;;;;;13.95;3.88;;;26.10;61.90;;;;;;5094369;28;20026;-60
2020/12/10 03:52:19;;;;;;;11.02;3.58;;;26.10;61.90;;;;;;5113227;28;20019;-56
2020/12/10 03:54:46;;;;;;;10.82;3.60;;;26.10;61.80;;;;;;5112215;28;20103;-58
2020/12/10 03:57:13;;;;;;;12.73;3.80;;;26.10;61.90;;;;;;5111962;28;20039;-62
2020/12/10 03:59:41;;;;;;;14.75;4.15;;;26.10;62.00;;;;;;5112374;28;20024;-57
2020/12/10 04:02:08;;;;;;;12.93;4.25;;;26.00;61.90;;;;;;5112365;28;20051;-56
2020/12/10 04:04:35;;;;;;;15.40;4.00;;;26.10;62.10;;;;;;5112335;28;20051;-56
2020/12/10 04:07:03;;;;;;;8.20;3.60;;;26.10;62.10;;;;;;5112265;28;20326;-58
2020/12/10 04:09:30;;;;;;;16.30;3.88;;;26.00;62.00;;;;;;5112550;28;20016;-56
2020/12/10 04:11:58;;;;;;;11.07;3.00;;;26.00;62.00;;;;;;5112804;28;20418;-58
2020/12/10 04:14:25;;;;;;;9.52;3.72;;;26.00;62.20;;;;;;5112678;28;20088;-61
2020/12/10 04:16:53;;;;;;;13.00;3.45;;;26.00;62.20;;;;;;5112210;28;20496;-58
2020/12/10 04:19:20;;;;;;;12.68;3.60;;;25.90;62.20;;;;;;5112889;28;20031;-58
2020/12/10 04:21:47;;;;;;;10.25;3.33;;;25.90;62.20;;;;;;5112397;28;20116;-57
2020/12/10 04:24:15;;;;;;;12.15;3.40;;;25.90;62.30;;;;;;5112554;28;20035;-57
2020/12/10 04:26:42;;;;;;;12.15;4.05;;;25.90;62.30;;;;;;5112248;28;20039;-57
2020/12/10 04:29:13;;;;;;;11.52;3.40;;;25.80;62.30;;;;;;5112494;28;20381;-60
2020/12/10 04:31:42;;;;;;;13.18;3.83;;;25.90;62.40;;;;;;5112567;28;20031;-61
2020/12/10 04:34:09;;;;;;;14.48;4.22;;;25.80;62.40;;;;;;5112413;28;20027;-57
2020/12/10 04:36:37;;;;;;;13.93;3.50;;;25.80;63.10;;;;;;5112024;28;20027;-61
2020/12/10 04:39:04;;;;;;;9.77;3.53;;;25.80;62.50;;;;;;5112135;28;20036;-54
2020/12/10 04:41:36;;;;;;;14.93;3.67;;;25.70;62.50;;;;;;5112341;28;20027;-57
2020/12/10 04:44:03;;;;;;;9.80;3.55;;;25.70;62.50;;;;;;5111790;28;20047;-55
2020/12/10 04:46:32;;;;;;;12.30;3.50;;;25.70;62.60;;;;;;5112136;28;20406;-59
2020/12/10 04:49:02;;;;;;;14.25;4.38;;;25.70;62.50;;;;;;5111557;28;20042;-62
2020/12/10 04:51:32;;;;;;;8.27;3.65;;;25.70;62.50;;;;;;5112397;28;20436;-59
2020/12/10 04:54:02;;;;;;;11.70;3.70;;;25.70;62.50;;;;;;5111988;28;20030;-57
2020/12/10 04:56:30;;;;;;;8.50;3.05;;;25.70;62.60;;;;;;5112030;28;20027;-60
2020/12/10 04:58:57;;;;;;;13.43;3.70;;;25.70;62.50;;;;;;5112162;28;20031;-54
2020/12/10 05:01:25;;;;;;;14.73;3.85;;;25.70;62.50;;;;;;5084732;28;20028;-52
2020/12/10 05:03:55;;;;;;;16.50;3.65;;;25.70;62.50;;;;;;5107681;28;20035;-56
2020/12/10 05:06:22;;;;;;;16.02;4.70;;;25.70;62.90;;;;;;5108543;28;20040;-62
2020/12/10 05:08:50;;;;;;;16.20;3.65;;;25.60;62.70;;;;;;5110461;28;20028;-54
2020/12/10 05:11:34;;;;;;;16.73;4.28;;;25.70;63.30;;;;;;5106768;28;20098;-53
2020/12/10 05:14:01;;;;;;;13.07;3.92;;;25.60;62.90;;;;;;5108993;28;20036;-52
2020/12/10 05:16:29;;;;;;;15.32;3.70;;;25.60;62.80;;;;;;5107867;28;20107;-52
2020/12/10 05:18:56;;;;;;;10.02;4.03;;;25.60;62.70;;;;;;5106761;28;20566;-54
2020/12/10 05:21:24;;;;;;;11.35;4.22;;;25.60;62.70;;;;;;5107207;28;20160;-56
2020/12/10 05:23:51;;;;;;;12.20;3.92;;;25.60;62.60;;;;;;5108377;28;20024;-55
2020/12/10 05:26:21;;;;;;;14.88;4.18;;;25.60;62.50;;;;;;5107109;28;20031;-52
2020/12/10 05:28:52;;;;;;;11.18;3.22;;;25.60;62.60;;;;;;5108875;28;20016;-49
2020/12/10 05:31:21;;;;;;;17.17;4.57;;;25.60;63.90;;;;;;5105523;28;20026;-53
2020/12/10 05:34:02;;;;;;;11.30;3.92;;;25.60;64.30;;;;;;5110396;28;20012;-61
2020/12/10 05:36:33;;;;;;;11.50;3.30;;;25.60;63.50;;;;;;5112977;28;20019;-54
2020/12/10 05:39:08;;;;;;;10.63;3.60;;;25.50;63.40;;;;;;5109795;28;20027;-52
2020/12/10 05:41:40;;;;;;;11.57;3.47;;;25.50;63.00;;;;;;5111612;28;20048;-51
2020/12/10 05:44:19;;;;;;;13.85;3.78;;;25.50;62.90;;;;;;5110452;28;20036;-52
2020/12/10 05:46:49;;;;;;;12.07;3.72;;;25.50;63.60;;;;;;5111360;28;20032;-55
2020/12/10 05:49:16;;;;;;;11.07;3.08;;;25.50;62.80;;;;;;5108021;28;20028;-59
2020/12/10 05:51:47;;;;;;;15.90;3.95;;;25.50;62.80;;;;;;5111966;28;20039;-58
2020/12/10 05:54:16;;;;;;;11.02;3.63;;;25.50;63.40;;;;;;5110345;28;20065;-59
2020/12/10 05:57:04;;;;;;;11.15;3.15;;;25.50;63.00;;;;;;5111518;27;20059;-52
2020/12/10 05:59:33;;;;;;;12.30;3.80;;;25.40;63.10;;;;;;5106856;28;20040;-52
2020/12/10 06:02:08;;;;;;;19.30;4.50;;;25.40;62.90;;;;;;5108737;28;20039;-53
2020/12/10 06:04:35;;;;;;;9.75;3.45;;;25.40;62.90;;;;;;5111692;28;20023;-48
2020/12/10 06:07:04;;;;;;;10.48;3.10;;;25.40;62.80;;;;;;5110663;28;20036;-50
2020/12/10 06:09:31;;;;;;;6.28;2.83;;;25.40;62.70;;;;;;5105253;28;20020;-53
2020/12/10 06:12:03;;;;;;;9.85;3.03;;;25.40;62.60;;;;;;5111477;28;20024;-44
2020/12/10 06:14:31;;;;;;;12.80;3.33;;;25.40;62.50;;;;;;5109890;28;20126;-54
2020/12/10 06:17:18;;;;;;;11.70;3.65;;;25.40;62.60;;;;;;5110541;28;20035;-45
2020/12/10 06:19:46;;;;;;;13.85;3.60;;;25.40;62.50;;;;;;5106223;28;20096;-48
2020/12/10 06:22:31;;;;;;;12.82;4.03;;;25.30;62.70;;;;;;5110989;28;20485;-49
2020/12/10 06:25:03;;;;;;;19.60;4.57;;;25.20;62.50;;;;;;5111456;28;20042;-44
2020/12/10 06:27:36;;;;;;;16.42;4.55;;;25.10;62.30;;;;;;5091884;28;20494;-49
2020/12/10 06:30:21;;;;;;;15.05;3.60;;;25.00;62.20;;;;;;5104088;28;20055;-47
2020/12/10 06:32:52;;;;;;;14.68;4.57;;;24.90;62.90;;;;;;5110101;28;20062;-42
2020/12/10 06:35:33;;;;;;;14.00;4.70;;;24.90;62.70;;;;;;5110847;28;20111;-50
2020/12/10 06:38:04;;;;;;;13.98;3.83;;;24.90;62.60;;;;;;5111295;28;20039;-52
2020/12/10 06:40:35;;;;;;;17.08;5.05;;;24.90;62.40;;;;;;5107078;28;20091;-48
2020/12/10 06:43:06;;;;;;;12.60;3.95;;;24.90;62.50;;;;;;5111124;28;20127;-48
2020/12/10 06:45:42;;;;;;;17.05;3.75;;;24.90;62.50;;;;;;5109767;28;20031;-47
2020/12/10 06:48:11;;;;;;;36.33;27.02;;;24.90;62.60;;;;;;5106859;28;20019;-45
2020/12/10 06:50:42;;;;;;;21.75;10.15;;;24.90;61.90;;;;;;5103580;28;20046;-46
2020/12/10 06:53:20;;;;;;;25.73;10.52;;;24.90;62.00;;;;;;5108211;28;20028;-49
2020/12/10 06:56:01;;;;;;;19.33;8.10;;;24.80;61.70;;;;;;5091851;28;20103;-49
2020/12/10 06:58:39;;;;;;;22.45;7.78;;;24.80;61.70;;;;;;5108837;28;20035;-48
2020/12/10 07:01:28;;;;;;;19.73;7.45;;;24.80;61.80;;;;;;5107360;28;20370;-43
2020/12/10 07:07:17;;;;;;;16.38;8.40;;;24.80;62.20;;;;;;5107235;28;20101;-50
2020/12/10 07:10:00;;;;;;;24.02;9.52;;;24.70;60.40;;;;;;5095251;28;20032;-54
2020/12/10 07:12:29;;;;;;;23.23;11.48;;;24.60;61.40;;;;;;5106046;27;20038;-53
2020/12/10 07:15:17;;;;;;;26.90;14.48;;;24.60;62.10;;;;;;5110009;27;20023;-49
2020/12/10 07:17:51;;;;;;;29.27;12.02;;;24.60;62.80;;;;;;5109701;27;20070;-55
2020/12/10 07:20:19;;;;;;;26.00;12.15;;;24.60;62.20;;;;;;5109070;28;20051;-48
2020/12/10 07:22:48;;;;;;;33.10;18.77;;;24.60;62.70;;;;;;5105984;28;20110;-50
2020/12/10 07:25:16;;;;;;;16.65;10.52;;;24.60;63.00;;;;;;5108112;28;20106;-51
2020/12/10 07:27:44;;;;;;;18.38;11.02;;;24.60;63.10;;;;;;5109825;28;20050;-51
2020/12/10 07:30:19;;;;;;;21.10;11.50;;;24.70;63.60;;;;;;5109644;27;20019;-50
2020/12/10 07:32:51;;;;;;;39.03;26.30;;;24.70;63.80;;;;;;5103594;28;20028;-52
2020/12/10 07:35:33;;;;;;;25.73;9.98;;;24.60;63.20;;;;;;5109794;28;20026;-53
2020/12/10 07:38:15;;;;;;;18.52;8.75;;;24.60;63.00;;;;;;5108776;28;20244;-51
2020/12/10 07:40:43;;;;;;;24.23;7.20;;;24.50;64.10;;;;;;5108980;28;20024;-48
2020/12/10 07:43:11;;;;;;;22.25;6.85;;;24.50;62.10;;;;;;5105298;28;20040;-49
2020/12/10 07:45:39;;;;;;;13.48;5.35;;;24.40;63.80;;;;;;5107542;28;20039;-50
2020/12/10 07:48:07;;;;;;;16.30;5.78;;;24.40;63.20;;;;;;5108505;28;20065;-50
2020/12/10 07:50:36;;;;;;;13.68;5.25;;;24.40;63.20;;;;;;5109877;28;20034;-57
2020/12/10 07:53:07;;;;;;;12.70;4.70;;;24.30;62.60;;;;;;5111969;28;20020;-57
2020/12/10 07:55:43;;;;;;;19.30;5.82;;;24.40;64.30;;;;;;5109461;28;20080;-58
2020/12/10 07:58:13;;;;;;;20.13;5.20;;;24.40;63.70;;;;;;5111990;28;20079;-58
2020/12/10 08:00:43;;;;;;;15.85;4.47;;;24.40;64.00;;;;;;5112249;28;20072;-56
2020/12/10 08:03:38;;;;;;;23.13;4.80;;;24.30;63.80;;;;;;5112350;28;20027;-51
2020/12/10 08:06:11;;;;;;;14.75;4.93;;;24.20;63.90;;;;;;5111839;28;20107;-57
2020/12/10 08:08:58;;;;;;;19.30;5.00;;;24.10;64.40;;;;;;5111739;28;20024;-49
2020/12/10 08:11:26;;;;;;;16.73;5.25;;;24.10;65.50;;;;;;5112645;28;20035;-53
2020/12/10 08:13:56;;;;;;;20.27;4.57;;;24.10;64.70;;;;;;5110536;28;20031;-58
2020/12/10 08:16:24;;;;;;;12.02;4.20;;;24.10;64.40;;;;;;5112146;28;20473;-54
2020/12/10 08:18:52;;;;;;;23.15;4.88;;;24.00;64.90;;;;;;5111639;28;20081;-57
2020/12/10 08:21:32;;;;;;;18.23;5.82;;;23.90;63.20;;;;;;5111663;28;20555;-56
2020/12/10 08:23:59;;;;;;;16.75;3.83;;;23.90;63.50;;;;;;5111803;28;20038;-58
2020/12/10 08:26:27;;;;;;;18.60;4.72;;;23.90;63.60;;;;;;5111941;28;20067;-51
2020/12/10 08:28:57;;;;;;;20.65;4.82;;;23.80;64.00;;;;;;5112103;28;20496;-50
2020/12/10 08:31:27;;;;;;;25.30;5.97;;;23.80;63.60;;;;;;5108293;28;20027;-56
2020/12/10 08:33:55;;;;;;;27.52;5.47;;;23.80;64.90;;;;;;5093893;28;20047;-55
2020/12/10 08:36:26;;;;;;;17.10;4.32;;;23.70;64.20;;;;;;5102240;28;20016;-54
2020/12/10 08:38:55;;;;;;;16.35;4.05;;;23.60;63.90;;;;;;5108973;28;20084;-53
2020/12/10 08:41:27;;;;;;;20.45;5.05;;;23.70;64.20;;;;;;5109317;28;20428;-54
2020/12/10 08:43:54;;;;;;;;;;;23.70;63.20;;;;;;5110983;28;20019;-55
2020/12/10 08:46:22;;;;;;;29.15;4.60;;;23.70;64.50;;;;;;5109942;28;19918;-55
2020/12/10 08:48:50;;;;;;;24.38;4.82;;;23.70;63.90;;;;;;5092015;28;20035;-54
2020/12/10 08:51:17;;;;;;;29.85;4.88;;;23.70;64.10;;;;;;5110289;28;20382;-54
2020/12/10 08:53:52;;;;;;;19.90;4.10;;;23.80;64.60;;;;;;5110960;28;20024;-54
2020/12/10 08:56:25;;;;;;;16.98;5.00;;;23.90;64.90;;;;;;5111743;28;20031;-54
2020/12/10 08:58:53;;;;;;;23.42;4.50;;;23.90;65.30;;;;;;5093254;28;20023;-55
2020/12/10 09:01:20;;;;;;;24.92;5.82;;;24.00;66.80;;;;;;5111568;28;20055;-54
2020/12/10 09:03:47;;;;;;;20.77;4.70;;;23.90;64.10;;;;;;5111914;28;20019;-51
2020/12/10 09:06:15;;;;;;;19.73;5.10;;;23.90;65.70;;;;;;5111473;28;20064;-51
2020/12/10 09:08:42;;;;;;;21.85;4.82;;;24.00;66.20;;;;;;5113894;28;20023;-54
2020/12/10 09:11:10;;;;;;;26.15;4.47;;;24.10;67.20;;;;;;5115821;28;20015;-53
2020/12/10 09:13:37;;;;;;;21.95;4.70;;;24.00;66.30;;;;;;5115746;28;20024;-55
2020/12/10 09:16:04;;;;;;;19.98;4.28;;;24.10;67.90;;;;;;5115987;28;20036;-55
2020/12/10 09:18:32;;;;;;;14.98;4.05;;;24.10;67.10;;;;;;5115407;28;20064;-57
2020/12/10 09:20:59;;;;;;;18.67;5.43;;;24.00;62.50;;;;;;5115718;28;20047;-54
2020/12/10 09:23:26;;;;;;;16.25;5.00;;;23.90;64.90;;;;;;5115960;28;20411;-57
2020/12/10 09:25:54;;;;;;;28.40;5.25;;;23.90;66.60;;;;;;5115322;28;20086;-55
2020/12/10 09:28:22;;;;;;;21.35;5.32;;;23.70;65.10;;;;;;5115483;28;20467;-54
2020/12/10 09:30:49;;;;;;;25.80;5.60;;;23.60;66.70;;;;;;5115197;28;20500;-56
2020/12/10 09:33:17;;;;;;;27.60;4.90;;;23.40;64.70;;;;;;5115397;28;20033;-55
2020/12/10 09:35:44;;;;;;;26.23;5.07;;;23.40;64.70;;;;;;5115484;28;20024;-51
2020/12/10 09:38:13;;;;;;;31.38;5.63;;;23.30;64.50;;;;;;5114348;27;20068;-55
2020/12/10 09:40:40;;;;;;;19.60;4.28;;;23.20;65.60;;;;;;5080921;28;20089;-54
2020/12/10 09:43:08;;;;;;;31.50;5.82;;;23.20;66.20;;;;;;5096813;28;20024;-57
2020/12/10 09:45:35;;;;;;;23.08;5.75;;;23.10;65.20;;;;;;5093257;28;20020;-55
2020/12/10 09:48:02;;;;;;;13.05;3.50;;;23.20;65.20;;;;;;5093472;28;20042;-54
2020/12/10 09:50:36;;;;;;;18.20;4.38;;;23.20;64.20;;;;;;5093305;28;20099;-56
2020/12/10 09:53:09;;;;;;;12.82;3.72;;;23.30;65.20;;;;;;5092325;28;20077;-55
2020/12/10 09:58:23;;;;;;;15.95;4.25;;;23.40;65.00;;;;;;5092276;28;20512;-61
2020/12/10 10:00:50;;;;;;;16.42;4.43;;;23.40;64.80;;;;;;5093980;28;20103;-56
2020/12/10 10:03:18;;;;;;;15.55;3.67;;;23.50;64.90;;;;;;5093391;28;20027;-56
2020/12/10 10:05:46;;;;;;;18.48;4.45;;;23.50;65.20;;;;;;5087909;27;20816;-60
2020/12/10 10:08:13;;;;;;;14.20;4.45;;;23.50;66.50;;;;;;5091204;28;20538;-53
2020/12/10 10:10:41;;;;;;;15.23;5.45;;;23.50;65.00;;;;;;5112124;28;20522;-56
2020/12/10 10:13:08;;;;;;;17.65;4.32;;;23.50;66.20;;;;;;5112766;27;20142;-59
2020/12/10 10:15:37;;;;;;;19.00;4.47;;;23.60;66.30;;;;;;5111126;28;20110;-60
2020/12/10 10:18:04;;;;;;;12.35;3.90;;;23.60;66.40;;;;;;5089233;28;20054;-55
2020/12/10 10:20:32;;;;;;;19.73;4.60;;;23.60;65.90;;;;;;5110491;28;20039;-53
2020/12/10 10:22:59;;;;;;;17.77;4.47;;;23.60;65.80;;;;;;5110583;28;20377;-54
2020/12/10 10:25:27;;;;;;;15.52;4.93;;;23.60;65.60;;;;;;5109557;27;20036;-57
2020/12/10 10:27:55;;;;;;;19.60;4.45;;;23.60;65.20;;;;;;5089854;28;20043;-59
2020/12/10 10:30:25;;;;;;;17.23;3.75;;;23.60;65.00;;;;;;5110732;28;20032;-57
2020/12/10 10:32:53;;;;;;;14.65;4.25;;;23.60;64.70;;;;;;5111229;28;20043;-56
2020/12/10 10:35:24;;;;;;;18.40;4.65;;;23.60;65.20;;;;;;5111818;28;20141;-53
2020/12/10 10:37:53;;;;;;;18.90;4.53;;;23.60;64.70;;;;;;5108079;28;20043;-54
2020/12/10 10:40:20;;;;;;;17.30;3.67;;;23.60;64.20;;;;;;5111654;27;20419;-52
2020/12/10 10:42:48;;;;;;;14.38;4.85;;;23.60;64.00;;;;;;5092050;28;20057;-54
2020/12/10 10:45:15;;;;;;;18.23;4.10;;;23.60;63.90;;;;;;5111224;28;20084;-58
2020/12/10 10:47:42;;;;;;;14.15;3.47;;;23.60;63.70;;;;;;5106812;28;20036;-57
2020/12/10 10:50:10;;;;;;;11.60;3.78;;;23.60;63.60;;;;;;5107959;28;20027;-60
2020/12/10 10:52:37;;;;;;;16.85;3.92;;;23.70;63.70;;;;;;5110278;28;20104;-54
2020/12/10 10:55:05;;;;;;;13.15;3.78;;;23.70;63.70;;;;;;5093430;28;20020;-50
2020/12/10 10:57:33;;;;;;;15.85;3.60;;;23.70;63.50;;;;;;5107479;28;20024;-52
2020/12/10 11:00:01;;;;;;;16.83;4.60;;;23.70;63.50;;;;;;5109824;28;20114;-59
2020/12/10 11:02:28;;;;;;;16.13;3.40;;;23.60;63.10;;;;;;5111766;27;20024;-54
2020/12/10 11:04:56;;;;;;;12.45;4.35;;;23.60;63.30;;;;;;5111054;28;20020;-51
2020/12/10 11:07:23;;;;;;;13.50;3.80;;;23.60;62.80;;;;;;5089869;28;20032;-56
2020/12/10 11:09:51;;;;;;;19.58;4.65;;;23.60;62.90;;;;;;5090024;28;20056;-63
2020/12/10 11:12:18;;;;;;;11.00;3.80;;;23.60;63.00;;;;;;5110615;28;20389;-54
2020/12/10 11:14:47;;;;;;;12.80;3.35;;;23.60;63.10;;;;;;5110143;28;20073;-53
2020/12/10 11:17:14;;;;;;;14.00;3.60;;;23.60;63.00;;;;;;5110652;28;20044;-51
2020/12/10 11:19:43;;;;;;;14.93;3.83;;;23.60;62.90;;;;;;5106944;28;20023;-57
2020/12/10 11:22:11;;;;;;;16.88;3.20;;;23.60;63.00;;;;;;5109905;28;20028;-60
2020/12/10 11:24:39;;;;;;;16.67;3.92;;;23.60;62.80;;;;;;5092348;28;20171;-56
2020/12/10 11:27:06;;;;;;;11.20;3.25;;;23.60;62.70;;;;;;5110636;28;20040;-52
2020/12/10 11:29:34;;;;;;;14.55;3.83;;;23.60;62.50;;;;;;5106989;28;20020;-52
2020/12/10 11:32:02;;;;;;;11.38;3.03;;;23.60;62.60;;;;;;5090919;28;20031;-59
2020/12/10 11:34:30;;;;;;;17.50;4.95;;;23.60;62.70;;;;;;5111241;28;20019;-60
2020/12/10 11:36:58;;;;;;;10.95;2.95;;;23.60;62.40;;;;;;5111310;28;20065;-55
2020/12/10 11:39:25;;;;;;;9.95;3.13;;;23.60;62.40;;;;;;5105773;28;20023;-55
2020/12/10 11:41:53;;;;;;;12.02;3.80;;;23.60;62.30;;;;;;5109858;28;20445;-56
2020/12/10 11:44:21;;;;;;;13.02;3.58;;;23.60;62.30;;;;;;5110168;28;20032;-52
2020/12/10 11:46:49;;;;;;;11.10;3.60;;;23.60;62.30;;;;;;5109776;28;20035;-62
2020/12/10 11:49:17;;;;;;;13.02;3.95;;;23.60;62.10;;;;;;5106778;28;20032;-61
2020/12/10 11:51:44;;;;;;;13.68;3.25;;;23.60;62.30;;;;;;5109905;28;20028;-48
2020/12/10 11:54:12;;;;;;;11.05;3.08;;;23.50;62.20;;;;;;5110264;28;20033;-51
2020/12/10 11:56:39;;;;;;;14.40;3.85;;;23.50;62.10;;;;;;5109603;28;20024;-55
2020/12/10 11:59:07;;;;;;;13.20;3.28;;;23.50;62.10;;;;;;5106727;28;20019;-49
2020/12/10 12:01:36;;;;;;;14.70;3.88;;;23.50;62.10;;;;;;5110488;27;20020;-56
2020/12/10 12:04:04;;;;;;;11.40;3.15;;;23.50;62.00;;;;;;5109208;28;20020;-52
2020/12/10 12:06:31;;;;;;;10.13;2.72;;;23.50;62.80;;;;;;5109988;28;20088;-56
2020/12/10 12:08:58;;;;;;;6.80;2.95;;;23.50;62.30;;;;;;5106339;28;20063;-48
2020/12/10 12:11:27;;;;;;;12.30;3.70;;;23.40;62.40;;;;;;5109532;28;20027;-53
2020/12/10 12:13:54;;;;;;;15.07;3.22;;;23.30;62.80;;;;;;5090596;28;20139;-56
2020/12/10 12:16:22;;;;;;;10.27;2.83;;;23.30;63.00;;;;;;5105798;28;20023;-51
2020/12/10 12:18:50;;;;;;;8.38;3.03;;;23.30;62.90;;;;;;5105770;28;20043;-56
2020/12/10 12:21:27;;;;;;;12.95;3.28;;;23.30;62.90;;;;;;5108584;28;20107;-56
2020/12/10 12:23:57;;;;;;;9.25;3.40;;;23.30;62.80;;;;;;5091930;28;20103;-60
2020/12/10 12:26:33;;;;;;;13.02;3.70;;;23.20;62.70;;;;;;5091283;28;20023;-58
2020/12/10 12:29:01;;;;;;;9.63;3.03;;;23.20;62.80;;;;;;5090954;28;20020;-59
2020/12/10 12:31:36;;;;;;;11.77;4.10;;;23.20;62.80;;;;;;5091944;28;20070;-58
2020/12/10 12:34:03;;;;;;;10.88;3.80;;;23.20;62.70;;;;;;5091957;28;20392;-60
2020/12/10 12:36:30;;;;;;;11.27;2.95;;;23.20;62.80;;;;;;5092165;28;20097;-59
2020/12/10 12:38:58;;;;;;;10.85;3.67;;;23.20;63.10;;;;;;5091989;28;20024;-57
2020/12/10 12:41:33;;;;;;;12.77;3.28;;;23.20;62.90;;;;;;5091937;28;20016;-55
2020/12/10 12:44:01;;;;;;;8.75;2.85;;;23.20;63.20;;;;;;5091470;28;20427;-60
2020/12/10 12:46:28;;;;;;;10.55;3.10;;;23.10;63.30;;;;;;5091594;28;20032;-59
2020/12/10 12:48:56;;;;;;;9.73;3.03;;;23.10;63.40;;;;;;5091252;28;20116;-58
2020/12/10 12:51:24;;;;;;;12.98;3.08;;;23.10;63.60;;;;;;5092568;28;20024;-60
2020/12/10 12:53:52;;;;;;;10.73;3.05;;;23.10;63.60;;;;;;5091901;28;20044;-58